Time;durP1;ratioP1;P1;durP2;ratioP2;P2;SDS_P1;SDS_P2;PMS_P1;PMS_P2;Temp;Humidity;BMP_temperature;BMP_pressure;BME280_temperature;BME280_humidity;BME280_pressure;Samples;Min_cycle;Max_cycle;Signal;HPM_P1;HPM_P2
2023/10/02 00:02:40;;;;;;;17.38;8.05;;;17.30;89.80;;;;;;5092572;28;20381;-67
2023/10/02 00:05:05;;;;;;;19.98;8.45;;;17.30;89.90;;;;;;5091941;28;20484;-66
2023/10/02 00:07:33;;;;;;;16.17;7.65;;;17.20;89.90;;;;;;5092800;28;20523;-66
2023/10/02 00:10:02;;;;;;;16.30;8.30;;;17.20;90.10;;;;;;5092447;28;20099;-68
2023/10/02 00:12:31;;;;;;;18.30;8.57;;;17.20;90.20;;;;;;5092298;28;20020;-68
2023/10/02 00:14:58;;;;;;;18.10;7.93;;;17.10;90.20;;;;;;5092644;28;20028;-67
2023/10/02 00:17:24;;;;;;;17.38;8.00;;;17.10;90.30;;;;;;5091327;28;20058;-66
2023/10/02 00:19:57;;;;;;;17.20;8.30;;;17.10;90.40;;;;;;5092791;28;20294;-66
2023/10/02 00:22:38;;;;;;;19.73;8.68;;;17.00;90.40;;;;;;5092419;28;20024;-66
2023/10/02 00:25:16;;;;;;;17.08;8.00;;;17.00;90.40;;;;;;5092350;28;20059;-67
2023/10/02 00:27:48;;;;;;;18.75;8.10;;;17.00;90.50;;;;;;5092689;28;20139;-66
2023/10/02 00:30:15;;;;;;;18.15;8.20;;;17.00;90.50;;;;;;5085789;28;20032;-67
2023/10/02 00:32:45;;;;;;;17.00;8.15;;;17.00;90.50;;;;;;5071201;28;20086;-67
2023/10/02 00:35:12;;;;;;;19.60;7.82;;;17.00;90.60;;;;;;5072080;28;20031;-66
2023/10/02 00:37:45;;;;;;;15.77;7.50;;;16.90;90.50;;;;;;5072399;28;20117;-66
2023/10/02 00:40:15;;;;;;;17.77;7.93;;;16.90;90.60;;;;;;5074278;28;20028;-67
2023/10/02 00:42:41;;;;;;;19.83;8.00;;;16.90;90.60;;;;;;5072644;28;20037;-66
2023/10/02 00:45:08;;;;;;;16.80;7.63;;;16.90;90.70;;;;;;5071520;28;20032;-67
2023/10/02 00:47:47;;;;;;;18.92;8.75;;;16.90;90.80;;;;;;5072417;28;20037;-67
2023/10/02 00:50:21;;;;;;;18.10;7.68;;;16.90;90.90;;;;;;5071844;28;20021;-67
2023/10/02 00:53:04;;;;;;;17.20;7.65;;;16.90;90.90;;;;;;5072194;28;20033;-67
2023/10/02 00:55:34;;;;;;;17.17;7.70;;;16.90;91.20;;;;;;5072216;28;20024;-66
2023/10/02 00:58:05;;;;;;;16.30;7.87;;;16.90;91.00;;;;;;5070476;28;20056;-67
2023/10/02 01:00:42;;;;;;;16.85;8.57;;;16.90;91.10;;;;;;5072328;28;20028;-67
2023/10/02 01:03:16;;;;;;;16.02;7.13;;;16.80;91.20;;;;;;5071753;28;20021;-67
2023/10/02 01:05:47;;;;;;;15.90;7.32;;;16.80;91.40;;;;;;5072092;28;20035;-67
2023/10/02 01:08:42;;;;;;;17.77;8.20;;;16.80;91.50;;;;;;5072034;28;20384;-67
2023/10/02 01:11:13;;;;;;;16.83;8.00;;;16.80;91.50;;;;;;5071542;28;20031;-66
2023/10/02 01:13:40;;;;;;;21.50;8.90;;;16.70;91.70;;;;;;5072047;28;20457;-67
2023/10/02 01:16:08;;;;;;;16.30;8.18;;;16.70;91.90;;;;;;5071303;28;20033;-67
2023/10/02 01:18:35;;;;;;;18.45;7.53;;;16.70;92.00;;;;;;5071648;28;20103;-66
2023/10/02 01:21:11;;;;;;;15.52;7.88;;;16.70;92.20;;;;;;5071971;28;20067;-66
2023/10/02 01:26:40;;;;;;;20.20;8.90;;;16.60;92.40;;;;;;5075639;28;20420;-66
2023/10/02 01:29:07;;;;;;;18.00;8.13;;;16.60;92.50;;;;;;5075356;28;20032;-67
2023/10/02 01:31:44;;;;;;;15.40;8.15;;;16.60;92.50;;;;;;5075387;28;20025;-67
2023/10/02 01:34:33;;;;;;;18.27;7.95;;;16.60;92.50;;;;;;5075090;28;20111;-66
2023/10/02 01:36:58;;;;;;;14.55;7.25;;;16.60;92.50;;;;;;5075269;28;20443;-66
2023/10/02 01:39:24;;;;;;;21.13;8.50;;;16.60;92.50;;;;;;5074807;28;20078;-66
2023/10/02 01:41:52;;;;;;;16.10;7.75;;;16.60;92.60;;;;;;5074956;28;20121;-66
2023/10/02 01:44:20;;;;;;;19.42;9.02;;;16.60;92.50;;;;;;5077134;28;20055;-67
2023/10/02 01:46:49;;;;;;;18.13;8.15;;;16.60;92.50;;;;;;5075198;28;20029;-66
2023/10/02 01:49:24;;;;;;;19.77;9.40;;;16.60;92.40;;;;;;5074846;28;20028;-66
2023/10/02 01:52:03;;;;;;;18.40;8.02;;;16.60;92.40;;;;;;5075103;28;20024;-68
2023/10/02 01:54:32;;;;;;;19.90;8.65;;;16.60;92.30;;;;;;5074931;28;20129;-68
2023/10/02 01:57:04;;;;;;;18.48;8.25;;;16.70;92.40;;;;;;5073554;28;20063;-66
2023/10/02 01:59:30;;;;;;;19.75;7.78;;;16.60;92.40;;;;;;5075012;28;20380;-66
2023/10/02 02:01:57;;;;;;;17.75;8.15;;;16.70;92.50;;;;;;5074699;28;20031;-66
2023/10/02 02:04:28;;;;;;;20.02;7.85;;;16.60;92.30;;;;;;5074150;28;20493;-67
2023/10/02 02:06:57;;;;;;;;;;;16.70;92.20;;;;;;5075301;28;20029;-67
2023/10/02 02:09:30;;;;;;;18.58;8.00;;;16.70;92.10;;;;;;5074396;28;20003;-67
2023/10/02 02:12:05;;;;;;;17.30;8.63;;;16.70;92.20;;;;;;5074843;28;20020;-67
2023/10/02 02:14:51;;;;;;;19.08;8.73;;;16.70;92.20;;;;;;5074828;28;20024;-67
2023/10/02 02:17:25;;;;;;;21.77;7.88;;;16.70;92.20;;;;;;5074067;28;20408;-67
2023/10/02 02:19:51;;;;;;;17.17;9.23;;;16.70;92.20;;;;;;5074555;28;20028;-67
2023/10/02 02:22:31;;;;;;;16.50;8.07;;;16.70;92.30;;;;;;5074110;28;20070;-66
2023/10/02 02:24:58;;;;;;;15.32;7.18;;;16.70;92.40;;;;;;5074431;28;20036;-67
2023/10/02 02:27:24;;;;;;;18.83;8.15;;;16.70;92.50;;;;;;5073756;28;20024;-67
2023/10/02 02:29:54;;;;;;;17.25;7.80;;;16.70;92.50;;;;;;5074242;28;20120;-66
2023/10/02 02:32:36;;;;;;;17.02;8.07;;;16.70;92.60;;;;;;5081442;28;20496;-66
2023/10/02 02:35:04;;;;;;;18.02;7.72;;;16.60;92.90;;;;;;5090388;28;20032;-67
2023/10/02 02:37:32;;;;;;;17.38;7.63;;;16.60;92.70;;;;;;5093611;28;20107;-67
2023/10/02 02:40:21;;;;;;;19.60;8.57;;;16.60;92.80;;;;;;5094305;28;20052;-67
2023/10/02 02:42:50;;;;;;;18.33;7.63;;;16.60;92.80;;;;;;5094020;28;20073;-67
2023/10/02 02:45:28;;;;;;;21.67;8.90;;;16.60;92.80;;;;;;5093837;28;20040;-67
2023/10/02 02:48:04;;;;;;;21.35;8.90;;;16.60;93.00;;;;;;5094323;28;20039;-66
2023/10/02 02:50:48;;;;;;;18.20;7.72;;;16.50;93.00;;;;;;5093623;28;20028;-68
2023/10/02 02:53:16;;;;;;;16.50;7.63;;;16.50;93.20;;;;;;5093910;28;20103;-68
2023/10/02 02:55:42;;;;;;;17.98;7.95;;;16.50;93.20;;;;;;5094178;28;20414;-66
2023/10/02 02:58:09;;;;;;;22.70;9.05;;;16.50;93.20;;;;;;5094030;28;20097;-68
2023/10/02 03:00:39;;;;;;;18.30;7.90;;;16.50;93.30;;;;;;5093849;28;20027;-67
2023/10/02 03:03:32;;;;;;;21.48;7.72;;;16.50;93.30;;;;;;5094206;28;20057;-67
2023/10/02 03:05:58;;;;;;;19.67;8.45;;;16.50;93.40;;;;;;5093491;28;20032;-67
2023/10/02 03:08:37;;;;;;;17.42;8.30;;;16.50;93.40;;;;;;5093545;28;20024;-67
2023/10/02 03:11:06;;;;;;;18.40;8.10;;;16.50;93.60;;;;;;5093862;28;20024;-66
2023/10/02 03:13:34;;;;;;;20.83;9.18;;;16.50;93.60;;;;;;5093389;28;20111;-67
2023/10/02 03:16:08;;;;;;;18.98;8.43;;;16.40;93.70;;;;;;5093632;28;20468;-67
2023/10/02 03:18:36;;;;;;;18.20;8.90;;;16.40;93.80;;;;;;5093282;28;20043;-68
2023/10/02 03:23:38;;;;;;;21.13;8.40;;;16.40;94.00;;;;;;5093627;28;20043;-67
2023/10/02 03:26:21;;;;;;;17.05;8.13;;;16.40;94.00;;;;;;5093661;28;20028;-68
2023/10/02 03:28:47;;;;;;;17.80;8.18;;;16.50;94.00;;;;;;5093697;28;20028;-66
2023/10/02 03:31:17;;;;;;;18.38;8.48;;;16.40;94.10;;;;;;5092854;28;20032;-68
2023/10/02 03:33:42;;;;;;;21.42;8.63;;;16.40;94.20;;;;;;5093268;28;20059;-68
2023/10/02 03:36:14;;;;;;;17.70;8.30;;;16.40;94.40;;;;;;5090086;28;20055;-68
2023/10/02 03:38:41;;;;;;;16.55;7.88;;;16.40;94.30;;;;;;5093370;28;20028;-67
2023/10/02 03:41:08;;;;;;;17.75;8.48;;;16.40;94.40;;;;;;5093587;28;20028;-67
2023/10/02 03:43:34;;;;;;;18.42;7.65;;;16.40;94.50;;;;;;5092731;28;20118;-67
2023/10/02 03:46:14;;;;;;;19.05;8.43;;;16.40;94.40;;;;;;5091855;28;20111;-67
2023/10/02 03:48:41;;;;;;;17.15;8.02;;;16.40;94.40;;;;;;5092507;28;20497;-67
2023/10/02 03:51:07;;;;;;;17.08;9.02;;;16.40;94.30;;;;;;5093158;28;20024;-67
2023/10/02 03:53:34;;;;;;;17.83;8.63;;;16.50;94.20;;;;;;5092743;28;20028;-66
2023/10/02 03:58:53;;;;;;;19.80;8.60;;;16.50;94.30;;;;;;5093167;28;20065;-66
2023/10/02 04:01:31;;;;;;;19.98;9.07;;;16.50;94.30;;;;;;5092545;28;20024;-67
2023/10/02 04:04:18;;;;;;;18.70;9.43;;;16.50;94.20;;;;;;5092888;28;20032;-66
2023/10/02 04:06:47;;;;;;;18.83;8.90;;;16.50;94.20;;;;;;5092954;28;20024;-66
2023/10/02 04:09:21;;;;;;;19.40;9.68;;;16.50;94.10;;;;;;5092897;28;20118;-67
2023/10/02 04:11:51;;;;;;;17.60;8.68;;;16.50;94.20;;;;;;5092581;28;20373;-68
2023/10/02 04:14:32;;;;;;;18.10;8.73;;;16.50;94.30;;;;;;5092447;28;20024;-69
2023/10/02 04:17:13;;;;;;;17.63;8.68;;;16.50;94.20;;;;;;5092554;28;20465;-68
2023/10/02 04:19:51;;;;;;;18.40;8.95;;;16.50;94.20;;;;;;5092351;28;20098;-68
2023/10/02 04:22:22;;;;;;;23.45;9.15;;;16.40;94.30;;;;;;5092049;28;20028;-68
2023/10/02 04:24:58;;;;;;;17.15;8.70;;;16.40;94.30;;;;;;5092337;28;20079;-67
2023/10/02 04:27:27;;;;;;;24.92;8.70;;;16.40;94.40;;;;;;5070004;28;20082;-66
2023/10/02 04:32:34;;;;;;;17.58;8.52;;;16.30;94.80;;;;;;5072028;28;20044;-66
2023/10/02 04:35:02;;;;;;;21.00;9.60;;;16.30;94.70;;;;;;5072126;28;20052;-67
2023/10/02 04:37:36;;;;;;;18.92;8.73;;;16.30;94.80;;;;;;5074216;28;20033;-67
2023/10/02 04:45:21;;;;;;;18.25;8.95;;;16.20;95.30;;;;;;5071746;28;20036;-71
2023/10/02 04:47:54;;;;;;;22.83;9.05;;;16.20;95.20;;;;;;5072188;28;20040;-67
2023/10/02 04:53:19;;;;;;;17.17;8.57;;;16.20;95.00;;;;;;5087846;28;20028;-67
2023/10/02 04:55:48;;;;;;;19.02;8.80;;;16.20;95.10;;;;;;5092388;28;20016;-67
2023/10/02 04:58:18;;;;;;;22.83;9.45;;;16.20;95.00;;;;;;5092040;28;20472;-67
2023/10/02 05:03:36;;;;;;;20.98;9.57;;;16.20;95.00;;;;;;5095910;28;20101;-67
2023/10/02 05:06:03;;;;;;;23.83;9.50;;;16.10;95.60;;;;;;5082298;28;20039;-67
2023/10/02 05:09:11;;;;;;;19.52;9.23;;;16.10;95.80;;;;;;5075507;28;20036;-68
2023/10/02 05:11:27;;;;;;;19.67;8.98;;;16.10;96.30;;;;;;5075233;28;20428;-68
2023/10/02 05:16:45;;;;;;;23.58;9.32;;;16.10;96.80;;;;;;5095320;28;20082;-67
2023/10/02 05:19:15;;;;;;;19.65;9.70;;;16.10;96.70;;;;;;5076811;28;20028;-66
2023/10/02 05:21:55;;;;;;;19.17;9.55;;;16.10;97.00;;;;;;5075115;28;20431;-66
2023/10/02 05:24:20;;;;;;;21.58;9.80;;;16.10;97.10;;;;;;5075510;28;20120;-70
2023/10/02 05:26:47;;;;;;;18.98;8.88;;;16.20;97.20;;;;;;5075269;28;20099;-66
2023/10/02 05:29:17;;;;;;;21.95;9.38;;;16.20;97.10;;;;;;5075170;28;20562;-65
2023/10/02 05:31:45;;;;;;;26.47;10.57;;;16.20;97.00;;;;;;5077778;28;20024;-66
2023/10/02 05:34:21;;;;;;;17.60;9.10;;;16.20;97.00;;;;;;5075495;28;20096;-66
2023/10/02 05:39:39;;;;;;;25.10;9.95;;;16.30;96.90;;;;;;5075075;28;20089;-65
2023/10/02 05:42:13;;;;;;;20.88;9.30;;;16.30;96.80;;;;;;5086477;28;20384;-66
2023/10/02 05:44:41;;;;;;;22.13;9.65;;;16.30;96.90;;;;;;5074841;28;20037;-66
2023/10/02 05:47:07;;;;;;;22.15;8.88;;;16.40;97.00;;;;;;5074982;28;20542;-66
2023/10/02 05:49:48;;;;;;;22.83;9.68;;;16.40;97.00;;;;;;5078465;28;20127;-68
2023/10/02 05:52:14;;;;;;;26.52;10.40;;;16.40;96.80;;;;;;5078761;28;20056;-65
2023/10/02 05:54:47;;;;;;;24.17;10.07;;;16.50;96.70;;;;;;5074585;28;20040;-66
2023/10/02 05:57:13;;;;;;;18.58;9.50;;;16.50;96.60;;;;;;5091863;28;20048;-65
2023/10/02 05:59:45;;;;;;;21.83;9.48;;;16.50;96.30;;;;;;5094646;28;20020;-66
2023/10/02 06:02:19;;;;;;;23.60;9.88;;;16.60;96.30;;;;;;5093789;28;20464;-65
2023/10/02 06:04:47;;;;;;;27.67;10.15;;;16.70;96.10;;;;;;5094589;28;20036;-66
2023/10/02 06:07:40;;;;;;;21.40;9.35;;;16.70;96.00;;;;;;5095127;28;20035;-66
2023/10/02 06:10:09;;;;;;;20.88;9.20;;;16.70;95.80;;;;;;5093588;28;20024;-66
2023/10/02 06:12:45;;;;;;;21.13;9.07;;;16.80;95.60;;;;;;5094526;28;20020;-67
2023/10/02 06:17:58;;;;;;;21.73;9.38;;;16.90;94.30;;;;;;5094580;28;20241;-66
2023/10/02 06:20:24;;;;;;;19.67;8.48;;;16.90;93.80;;;;;;5094757;28;20031;-67
2023/10/02 06:22:51;;;;;;;22.45;9.35;;;17.00;93.40;;;;;;5093905;28;20032;-66
2023/10/02 06:25:20;;;;;;;20.95;9.00;;;16.90;93.00;;;;;;5094661;28;20123;-67
2023/10/02 06:27:47;;;;;;;22.63;9.52;;;17.00;92.60;;;;;;5088059;28;20093;-66
2023/10/02 06:30:18;;;;;;;23.35;8.93;;;17.10;92.40;;;;;;5074283;28;20029;-67
2023/10/02 06:32:53;;;;;;;19.58;8.52;;;17.10;92.20;;;;;;5074166;28;20047;-67
2023/10/02 06:35:26;;;;;;;20.58;9.05;;;17.10;91.90;;;;;;5074374;28;20036;-65
2023/10/02 06:37:52;;;;;;;27.45;9.13;;;17.20;91.90;;;;;;5074214;28;20024;-65
2023/10/02 06:40:23;;;;;;;19.75;8.90;;;17.20;91.90;;;;;;5073985;28;20471;-66
2023/10/02 06:42:50;;;;;;;21.17;8.30;;;17.30;92.00;;;;;;5073497;28;20036;-65
2023/10/02 06:45:21;;;;;;;22.33;8.93;;;17.30;91.90;;;;;;5073962;28;20055;-67
2023/10/02 06:47:48;;;;;;;22.92;9.75;;;17.30;92.00;;;;;;5075534;28;20194;-66
2023/10/02 06:50:31;;;;;;;19.42;8.93;;;17.40;92.00;;;;;;5073878;28;20119;-66
2023/10/02 06:53:00;;;;;;;20.70;9.15;;;17.50;92.00;;;;;;5073800;28;20025;-66
2023/10/02 06:55:27;;;;;;;28.08;9.63;;;17.50;92.10;;;;;;5073300;28;20384;-66
2023/10/02 06:57:53;;;;;;;23.15;10.20;;;17.60;92.10;;;;;;5073416;28;20106;-66
2023/10/02 07:00:21;;;;;;;22.65;9.52;;;17.60;92.10;;;;;;5073726;28;20056;-66
2023/10/02 07:03:03;;;;;;;23.98;8.48;;;17.70;91.90;;;;;;5073182;28;20074;-66
2023/10/02 07:05:33;;;;;;;16.77;8.52;;;17.80;91.70;;;;;;5072196;28;20415;-71
2023/10/02 07:08:01;;;;;;;20.13;9.52;;;17.90;91.40;;;;;;5073370;28;20035;-66
2023/10/02 07:10:29;;;;;;;18.33;8.95;;;18.10;91.20;;;;;;5073465;28;20476;-66
2023/10/02 07:12:55;;;;;;;22.48;8.95;;;18.20;91.00;;;;;;5073367;28;20021;-66
2023/10/02 07:15:22;;;;;;;15.98;8.10;;;18.30;90.50;;;;;;5073344;28;20451;-66
2023/10/02 07:17:48;;;;;;;16.95;7.85;;;18.50;90.10;;;;;;5072801;28;20028;-65
2023/10/02 07:20:17;;;;;;;21.35;8.70;;;18.80;89.00;;;;;;5073213;28;20036;-66
2023/10/02 07:22:43;;;;;;;21.90;9.63;;;19.10;88.10;;;;;;5072810;28;20034;-66
2023/10/02 07:25:09;;;;;;;17.60;8.25;;;19.50;85.20;;;;;;5073064;28;20036;-65
2023/10/02 07:27:37;;;;;;;22.58;9.30;;;19.90;82.40;;;;;;5073104;28;20028;-66
2023/10/02 07:30:04;;;;;;;24.83;9.57;;;20.30;82.50;;;;;;5073259;28;20040;-66
2023/10/02 07:32:34;;;;;;;26.00;9.60;;;20.60;81.50;;;;;;5073043;28;20024;-66
2023/10/02 07:35:09;;;;;;;21.08;9.45;;;21.00;77.40;;;;;;5073129;28;20043;-65
2023/10/02 07:37:36;;;;;;;21.77;8.95;;;21.20;76.70;;;;;;5075218;28;20105;-67
2023/10/02 07:40:06;;;;;;;21.45;9.40;;;21.50;74.30;;;;;;5072854;28;20108;-66
2023/10/02 07:42:32;;;;;;;19.73;9.07;;;22.00;73.70;;;;;;5072643;28;20032;-71
2023/10/02 07:45:11;;;;;;;20.60;9.00;;;22.40;71.90;;;;;;5072795;28;20039;-66
2023/10/02 07:47:39;;;;;;;24.50;8.80;;;22.90;69.30;;;;;;5072539;28;20025;-66
2023/10/02 07:50:23;;;;;;;19.30;8.55;;;23.60;67.00;;;;;;5073064;28;20107;-66
2023/10/02 07:52:49;;;;;;;20.13;8.65;;;24.30;65.80;;;;;;5072555;28;20119;-67
2023/10/02 07:55:15;;;;;;;25.05;8.68;;;25.60;61.60;;;;;;5073068;28;20470;-66
2023/10/02 07:57:41;;;;;;;22.00;8.43;;;26.80;58.50;;;;;;5071998;28;20059;-66
2023/10/02 08:00:33;;;;;;;21.35;8.68;;;27.90;56.10;;;;;;5072746;28;20125;-65
2023/10/02 08:02:54;;;;;;;25.52;8.68;;;28.50;53.20;;;;;;5072011;28;20044;-66
2023/10/02 08:05:20;;;;;;;20.63;8.75;;;29.00;51.50;;;;;;5072718;28;20078;-66
2023/10/02 08:07:46;;;;;;;19.10;8.18;;;29.20;50.50;;;;;;5072191;28;20029;-66
2023/10/02 08:10:13;;;;;;;17.98;7.45;;;28.70;48.90;;;;;;5072120;28;20043;-66
2023/10/02 08:12:54;;;;;;;19.35;8.15;;;28.40;49.70;;;;;;5071978;28;20024;-66
2023/10/02 08:15:26;;;;;;;19.15;8.10;;;27.90;50.10;;;;;;5072571;28;20032;-65
2023/10/02 08:20:32;;;;;;;22.70;8.38;;;27.20;51.80;;;;;;5072472;28;20047;-66
2023/10/02 08:23:00;;;;;;;14.73;6.95;;;27.00;52.20;;;;;;5072054;28;20032;-67
2023/10/02 08:25:26;;;;;;;17.52;7.18;;;26.80;49.70;;;;;;5072387;28;20036;-66
2023/10/02 08:27:57;;;;;;;16.70;8.10;;;26.70;49.80;;;;;;5072088;28;20500;-66
2023/10/02 08:30:27;;;;;;;18.92;8.13;;;26.60;50.70;;;;;;5072531;28;20407;-65
2023/10/02 08:33:19;;;;;;;14.95;6.85;;;26.70;49.80;;;;;;5071946;28;20465;-66
2023/10/02 08:35:46;;;;;;;14.23;7.38;;;26.70;48.30;;;;;;5076140;28;20060;-65
2023/10/02 08:38:25;;;;;;;13.80;6.90;;;26.70;47.30;;;;;;5076130;28;20534;-66
2023/10/02 08:40:58;;;;;;;14.25;6.70;;;26.80;47.30;;;;;;5076282;28;20035;-66
2023/10/02 08:43:28;;;;;;;18.00;7.50;;;26.80;47.00;;;;;;5076244;28;20028;-65
2023/10/02 08:45:54;;;;;;;15.38;7.03;;;26.80;47.00;;;;;;5075900;28;20055;-66
2023/10/02 08:48:21;;;;;;;15.57;7.60;;;26.80;47.20;;;;;;5076240;28;20023;-65
2023/10/02 08:50:50;;;;;;;16.25;6.88;;;26.70;46.40;;;;;;5075776;28;20025;-66
2023/10/02 08:53:23;;;;;;;16.83;7.28;;;26.70;47.50;;;;;;5075715;28;20472;-65
2023/10/02 08:56:40;;;;;;;16.35;6.95;;;26.70;47.60;;;;;;5075667;28;20111;-66
2023/10/02 08:59:26;;;;;;;22.73;6.85;;;26.80;46.80;;;;;;5075055;28;20377;-67
2023/10/02 09:02:13;;;;;;;12.20;6.20;;;26.90;47.50;;;;;;5075642;28;20583;-66
2023/10/02 09:04:40;;;;;;;15.00;7.13;;;27.00;47.00;;;;;;5075488;28;20044;-66
2023/10/02 09:07:21;;;;;;;18.33;7.13;;;27.00;47.10;;;;;;5075826;28;20024;-66
2023/10/02 09:09:54;;;;;;;;;;;27.10;46.70;;;;;;5075803;28;20032;-66
2023/10/02 09:12:20;;;;;;;15.55;6.63;;;27.20;47.10;;;;;;5075888;28;19919;-65
2023/10/02 09:14:46;;;;;;;17.77;7.05;;;27.30;47.80;;;;;;5075467;28;20029;-66
2023/10/02 09:17:25;;;;;;;18.33;6.78;;;27.40;46.50;;;;;;5075737;28;20021;-66
2023/10/02 09:20:03;;;;;;;18.73;7.40;;;27.30;46.20;;;;;;5075244;28;20102;-66
2023/10/02 09:22:44;;;;;;;14.40;6.38;;;27.30;46.40;;;;;;5075630;28;20385;-66
2023/10/02 09:25:13;;;;;;;14.75;6.45;;;27.30;46.50;;;;;;5075205;28;20502;-66
2023/10/02 09:27:54;;;;;;;22.27;6.53;;;27.30;46.20;;;;;;5075526;28;20131;-66
2023/10/02 09:33:05;;;;;;;26.35;7.07;;;27.30;47.30;;;;;;5075109;28;20024;-66
2023/10/02 09:38:04;;;;;;;16.25;7.20;;;27.60;47.40;;;;;;5088296;28;20035;-66
2023/10/02 09:43:24;;;;;;;17.52;7.32;;;27.60;45.90;;;;;;5095227;28;20045;-65
2023/10/02 09:46:06;;;;;;;18.05;6.07;;;27.70;45.60;;;;;;5093640;28;20036;-65
2023/10/02 09:48:46;;;;;;;15.02;6.30;;;27.70;45.60;;;;;;5095459;28;20054;-65
2023/10/02 09:51:20;;;;;;;16.33;6.15;;;27.80;45.70;;;;;;5095340;28;20077;-66
2023/10/02 09:54:05;;;;;;;15.27;6.68;;;27.80;45.50;;;;;;5094810;28;20537;-66
2023/10/02 09:57:04;;;;;;;11.88;5.70;;;27.90;45.20;;;;;;5095099;28;20154;-65
2023/10/02 09:59:42;;;;;;;14.00;6.50;;;28.00;45.00;;;;;;5095078;28;20040;-66
2023/10/02 10:02:49;;;;;;;14.43;6.45;;;28.00;44.10;;;;;;5095056;28;20024;-65
2023/10/02 10:10:49;;;;;;;11.75;5.55;;;28.10;43.30;;;;;;5094768;28;20032;-66
2023/10/02 10:13:32;;;;;;;14.75;5.78;;;28.10;43.30;;;;;;5094691;28;20024;-66
2023/10/02 10:16:18;;;;;;;17.10;6.07;;;28.10;42.80;;;;;;5094190;28;20024;-66
2023/10/02 10:22:00;;;;;;;14.32;6.13;;;28.10;42.90;;;;;;5094879;28;20028;-66
2023/10/02 10:24:51;;;;;;;11.90;6.20;;;28.00;42.90;;;;;;5094519;28;20496;-66
2023/10/02 10:27:39;;;;;;;13.15;5.80;;;27.90;42.90;;;;;;5093461;28;20345;-66
2023/10/02 10:30:24;;;;;;;18.98;6.60;;;27.90;44.00;;;;;;5094121;28;20047;-66
2023/10/02 10:35:35;;;;;;;13.80;6.40;;;28.10;43.70;;;;;;5094134;28;20141;-67
2023/10/02 10:41:31;;;;;;;13.27;6.05;;;28.20;43.40;;;;;;5073361;28;20034;-66
2023/10/02 10:43:59;;;;;;;13.20;5.32;;;28.20;43.60;;;;;;5064901;28;20098;-66
2023/10/02 10:46:32;;;;;;;12.02;6.05;;;28.20;44.10;;;;;;5073868;28;20306;-66
2023/10/02 10:49:07;;;;;;;16.35;5.65;;;28.30;43.80;;;;;;5073249;28;20024;-66
2023/10/02 10:51:34;;;;;;;12.27;6.30;;;28.40;43.60;;;;;;5073879;28;20024;-65
2023/10/02 10:54:12;;;;;;;12.82;5.82;;;28.40;43.40;;;;;;5073201;28;20476;-66
2023/10/02 10:56:43;;;;;;;11.02;5.65;;;28.50;43.80;;;;;;5072908;28;20381;-65
2023/10/02 10:59:12;;;;;;;10.48;5.68;;;28.50;43.80;;;;;;5073228;28;20049;-66
2023/10/02 11:05:03;;;;;;;11.15;5.03;;;28.40;43.20;;;;;;5073348;28;20079;-65
2023/10/02 11:07:37;;;;;;;11.63;5.95;;;28.50;43.40;;;;;;5073541;28;20043;-66
2023/10/02 11:10:20;;;;;;;13.43;5.50;;;28.50;44.00;;;;;;5073106;28;20082;-66
2023/10/02 11:12:55;;;;;;;11.60;5.78;;;28.60;43.80;;;;;;5072981;28;20070;-71
2023/10/02 11:18:20;;;;;;;10.13;5.35;;;28.60;43.50;;;;;;5072997;28;20086;-66
2023/10/02 11:20:49;;;;;;;11.70;5.38;;;28.60;43.70;;;;;;5073373;28;20020;-66
2023/10/02 11:23:23;;;;;;;16.40;5.88;;;28.70;43.90;;;;;;5073140;28;20025;-66
2023/10/02 11:25:58;;;;;;;11.57;5.80;;;28.80;43.60;;;;;;5072946;28;20024;-66
2023/10/02 11:28:32;;;;;;;17.33;5.32;;;28.90;43.00;;;;;;5073122;28;20078;-66
2023/10/02 11:31:35;;;;;;;13.25;6.40;;;28.80;43.00;;;;;;5075088;28;20016;-66
2023/10/02 11:34:06;;;;;;;13.95;6.82;;;28.90;43.10;;;;;;5072538;28;20130;-66
2023/10/02 11:36:37;;;;;;;12.15;5.68;;;29.00;43.00;;;;;;5072997;28;20484;-65
2023/10/02 11:39:16;;;;;;;15.30;8.05;;;29.00;43.20;;;;;;5072634;28;20025;-65
2023/10/02 11:41:42;;;;;;;13.27;6.43;;;29.00;43.60;;;;;;5072902;28;20082;-65
2023/10/02 11:44:12;;;;;;;10.88;5.85;;;29.10;43.70;;;;;;5072334;28;20032;-64
2023/10/02 11:46:40;;;;;;;15.32;6.00;;;29.10;43.90;;;;;;5072855;28;20534;-65
2023/10/02 11:49:06;;;;;;;10.57;5.38;;;29.20;43.60;;;;;;5072386;28;20033;-66
2023/10/02 11:51:33;;;;;;;9.40;5.32;;;29.20;43.50;;;;;;5071383;28;20035;-66
2023/10/02 11:53:59;;;;;;;11.07;5.45;;;29.10;42.80;;;;;;5072292;28;20473;-66
2023/10/02 11:56:26;;;;;;;13.32;5.40;;;29.10;42.80;;;;;;5072789;28;20020;-66
2023/10/02 11:58:52;;;;;;;11.65;5.80;;;29.10;43.00;;;;;;5072379;28;20161;-65
2023/10/02 12:01:22;;;;;;;9.63;5.47;;;29.00;42.70;;;;;;5072381;28;20025;-65
2023/10/02 12:03:50;;;;;;;10.73;5.22;;;28.80;42.90;;;;;;5072081;28;20507;-66
2023/10/02 12:06:16;;;;;;;11.85;5.93;;;28.90;43.70;;;;;;5072110;28;20028;-66
2023/10/02 12:08:49;;;;;;;12.45;5.32;;;28.80;43.90;;;;;;5072093;28;20029;-66
2023/10/02 12:11:14;;;;;;;8.65;4.75;;;28.80;43.70;;;;;;5072162;28;20131;-66
2023/10/02 12:13:42;;;;;;;12.10;6.22;;;28.80;44.00;;;;;;5072633;28;20032;-65
2023/10/02 12:16:11;;;;;;;13.95;5.80;;;28.90;44.40;;;;;;5070896;28;20095;-65
2023/10/02 12:18:37;;;;;;;11.80;5.82;;;28.80;44.50;;;;;;5072378;28;20033;-65
2023/10/02 12:21:08;;;;;;;9.40;5.60;;;28.90;44.60;;;;;;5072055;28;20029;-66
2023/10/02 12:23:39;;;;;;;15.20;5.80;;;28.80;44.60;;;;;;5072431;28;20560;-66
2023/10/02 12:26:04;;;;;;;11.55;5.63;;;28.80;44.90;;;;;;5072119;28;20060;-66
2023/10/02 12:28:30;;;;;;;15.13;5.53;;;28.70;45.20;;;;;;5072382;28;20055;-66
2023/10/02 12:30:56;;;;;;;12.73;5.35;;;28.50;45.20;;;;;;5080812;28;20054;-66
2023/10/02 12:33:21;;;;;;;10.27;4.90;;;28.40;45.20;;;;;;5092155;28;20068;-65
2023/10/02 12:35:47;;;;;;;9.32;5.40;;;28.30;45.50;;;;;;5092425;28;20020;-66
2023/10/02 12:38:13;;;;;;;14.07;7.07;;;28.20;45.80;;;;;;5092016;28;20383;-66
2023/10/02 12:40:39;;;;;;;9.25;5.03;;;28.10;46.20;;;;;;5092421;28;20028;-66
2023/10/02 12:43:05;;;;;;;9.27;4.93;;;28.00;46.20;;;;;;5092089;28;20429;-65
2023/10/02 12:45:35;;;;;;;10.43;4.93;;;27.90;46.40;;;;;;5092379;28;20058;-66
2023/10/02 12:48:12;;;;;;;12.27;5.03;;;27.80;46.70;;;;;;5092051;28;20050;-66
2023/10/02 12:50:41;;;;;;;10.00;5.03;;;27.80;46.80;;;;;;5088621;28;20077;-66
2023/10/02 12:53:08;;;;;;;10.88;4.85;;;27.70;47.20;;;;;;5091671;28;20495;-66
2023/10/02 12:55:36;;;;;;;10.38;5.28;;;27.60;47.30;;;;;;5092266;28;20068;-66
2023/10/02 12:58:04;;;;;;;12.25;5.95;;;27.60;47.40;;;;;;5091956;28;20048;-65
2023/10/02 13:00:33;;;;;;;10.40;5.28;;;27.50;47.50;;;;;;5092254;28;20442;-65
2023/10/02 13:02:59;;;;;;;11.30;5.38;;;27.40;47.60;;;;;;5091702;28;20452;-66
2023/10/02 13:05:25;;;;;;;9.25;5.28;;;27.30;47.50;;;;;;5092240;28;20081;-65
2023/10/02 13:07:55;;;;;;;10.10;5.13;;;27.30;47.70;;;;;;5092170;28;20028;-65
2023/10/02 13:10:23;;;;;;;12.27;5.67;;;27.20;48.20;;;;;;5092188;28;20061;-66
2023/10/02 13:12:49;;;;;;;9.48;5.35;;;27.10;48.30;;;;;;5092054;28;20260;-66
2023/10/02 13:15:15;;;;;;;13.82;5.60;;;27.00;48.30;;;;;;5091995;28;20376;-66
2023/10/02 13:17:42;;;;;;;14.60;5.95;;;27.00;48.70;;;;;;5092233;28;20024;-66
2023/10/02 13:20:10;;;;;;;14.20;5.40;;;26.90;48.80;;;;;;5093213;28;20058;-66
2023/10/02 13:22:36;;;;;;;11.38;5.25;;;26.80;48.90;;;;;;5095823;28;20024;-66
2023/10/02 13:25:05;;;;;;;17.05;5.82;;;26.80;49.20;;;;;;5094091;28;20085;-66
2023/10/02 13:27:31;;;;;;;11.57;5.10;;;26.70;49.20;;;;;;5095758;28;20069;-65
2023/10/02 13:29:58;;;;;;;10.40;5.47;;;26.70;49.20;;;;;;5095445;28;20020;-70
2023/10/02 13:32:23;;;;;;;14.48;5.20;;;26.70;49.50;;;;;;5095823;28;20028;-66
2023/10/02 13:34:51;;;;;;;12.45;5.30;;;26.60;49.60;;;;;;5095719;28;20367;-66
2023/10/02 13:37:17;;;;;;;12.27;5.75;;;26.60;49.70;;;;;;5095296;28;20028;-66
2023/10/02 13:39:43;;;;;;;11.65;5.32;;;26.60;49.90;;;;;;5084042;28;20100;-66
2023/10/02 13:42:09;;;;;;;11.77;5.60;;;26.50;49.80;;;;;;5074459;28;20021;-65
2023/10/02 13:44:34;;;;;;;10.40;4.82;;;26.50;49.80;;;;;;5075142;28;20048;-65
2023/10/02 13:47:00;;;;;;;13.30;5.47;;;26.50;50.10;;;;;;5074863;28;20099;-65
2023/10/02 13:49:27;;;;;;;14.88;5.53;;;26.50;50.40;;;;;;5075032;28;20074;-66
2023/10/02 13:51:52;;;;;;;14.35;5.82;;;26.50;50.40;;;;;;5075144;28;20028;-65
2023/10/02 13:54:18;;;;;;;10.75;5.60;;;26.50;50.80;;;;;;5074329;28;20041;-66
2023/10/02 13:56:45;;;;;;;12.20;5.75;;;26.50;50.80;;;;;;5074855;28;20052;-65
2023/10/02 13:59:11;;;;;;;10.73;5.70;;;26.40;50.60;;;;;;5074596;28;20033;-66
2023/10/02 14:01:36;;;;;;;13.10;5.93;;;26.40;50.80;;;;;;5074781;28;20031;-68
2023/10/02 14:04:06;;;;;;;15.73;5.55;;;26.40;50.90;;;;;;5074031;28;20558;-66